createdAt,value
2022-10-14T00:01:45.965Z,89.36
2022-10-14T00:04:24.116Z,89.02
2022-10-14T00:07:02.276Z,89.45
2022-10-14T00:09:43.417Z,89.30
2022-10-14T00:12:25.025Z,89.37
2022-10-14T00:15:05.795Z,88.71
2022-10-14T00:17:43.025Z,88.77
2022-10-14T00:20:21.239Z,88.69
2022-10-14T00:23:01.622Z,88.23
2022-10-14T00:25:39.297Z,87.69
2022-10-14T00:28:17.917Z,87.15
2022-10-14T00:30:57.212Z,87.32
2022-10-14T00:33:35.469Z,87.35
2022-10-14T00:36:16.651Z,87.51
2022-10-14T00:38:55.433Z,87.21
2022-10-14T00:41:35.158Z,87.12
2022-10-14T00:44:13.086Z,87.00
2022-10-14T00:46:51.733Z,86.67
2022-10-14T00:49:38.282Z,86.67
2022-10-14T00:52:21.008Z,86.41
2022-10-14T00:55:05.306Z,86.75
2022-10-14T00:57:44.341Z,86.79
2022-10-14T01:00:23.597Z,86.64
2022-10-14T01:03:06.784Z,86.97
2022-10-14T01:05:58.781Z,88.75
2022-10-14T01:08:45.944Z,88.92
2022-10-14T01:11:41.943Z,88.98
2022-10-14T01:14:27.683Z,89.16
2022-10-14T01:17:18.774Z,89.78
2022-10-14T01:20:06.251Z,89.58
2022-10-14T01:23:19.161Z,89.47
2022-10-14T01:26:19.360Z,90.21
2022-10-14T01:29:04.011Z,89.30
2022-10-14T01:31:48.943Z,90.20
2022-10-14T01:34:36.113Z,89.70
2022-10-14T01:37:23.838Z,89.82
2022-10-14T01:40:12.172Z,89.94
2022-10-14T01:42:53.069Z,90.78
2022-10-14T01:45:35.189Z,90.76
2022-10-14T01:48:18.012Z,90.42
2022-10-14T01:50:59.912Z,90.10
2022-10-14T01:53:42.787Z,89.96
2022-10-14T01:56:21.235Z,90.03
2022-10-14T01:59:00.693Z,90.28
2022-10-14T02:01:39.753Z,89.11
2022-10-14T02:04:20.580Z,89.11
2022-10-14T02:07:31.024Z,88.17
2022-10-14T02:10:23.857Z,88.25
2022-10-14T02:13:27.961Z,88.61
2022-10-14T02:16:12.413Z,88.83
2022-10-14T02:19:08.667Z,88.17
2022-10-14T02:22:08.599Z,88.65
2022-10-14T02:24:52.119Z,89.05
2022-10-14T02:27:34.755Z,89.49
2022-10-14T02:30:15.829Z,89.68
2022-10-14T02:32:54.094Z,89.69
2022-10-14T02:35:34.870Z,89.32
2022-10-14T02:38:16.465Z,89.32
2022-10-14T02:40:54.599Z,88.66
2022-10-14T02:43:32.754Z,89.79
2022-10-14T02:46:11.000Z,90.23
2022-10-14T02:48:51.834Z,91.08
2022-10-14T02:51:30.519Z,91.48
2022-10-14T02:54:08.738Z,91.99
2022-10-14T02:56:46.989Z,92.21
2022-10-14T02:59:25.230Z,92.23
2022-10-14T03:02:03.457Z,92.96
2022-10-14T03:04:41.960Z,92.51
2022-10-14T03:07:21.310Z,92.79
2022-10-14T03:10:03.202Z,92.69
2022-10-14T03:12:46.245Z,92.40
2022-10-14T03:15:33.624Z,92.47
2022-10-14T03:18:11.810Z,92.69
2022-10-14T03:20:54.873Z,92.79
2022-10-14T03:23:39.410Z,93.61
2022-10-14T03:26:18.032Z,94.29
2022-10-14T03:28:59.062Z,94.75
2022-10-14T03:31:50.959Z,94.96
2022-10-14T03:34:44.215Z,94.77
2022-10-14T03:37:27.164Z,94.35
2022-10-14T03:40:07.678Z,93.58
2022-10-14T03:42:47.114Z,93.26
2022-10-14T03:45:28.433Z,92.69
2022-10-14T03:48:08.052Z,92.51
2022-10-14T03:50:49.547Z,93.34
2022-10-14T03:53:30.842Z,93.13
2022-10-14T03:56:11.536Z,93.52
2022-10-14T03:58:48.870Z,93.38
2022-10-14T04:01:30.785Z,92.55
2022-10-14T04:04:32.492Z,93.32
2022-10-14T04:07:10.787Z,93.27
2022-10-14T04:09:48.986Z,93.92
2022-10-14T04:12:27.359Z,94.11
2022-10-14T04:15:11.770Z,94.40
2022-10-14T04:18:09.848Z,94.52
2022-10-14T04:20:48.900Z,94.31
2022-10-14T04:23:27.204Z,94.65
2022-10-14T04:26:10.546Z,94.77
2022-10-14T04:28:50.089Z,95.39
2022-10-14T04:31:43.171Z,95.78
2022-10-14T04:34:22.979Z,95.86
2022-10-14T04:37:02.159Z,95.72
2022-10-14T04:39:56.383Z,95.92
2022-10-14T04:42:34.554Z,95.83
2022-10-14T04:45:18.570Z,95.34
2022-10-14T04:48:03.986Z,95.99
2022-10-14T04:50:52.721Z,95.30
2022-10-14T04:53:54.177Z,95.29
2022-10-14T04:56:51.986Z,95.23
2022-10-14T04:59:31.079Z,95.47
2022-10-14T05:02:30.639Z,94.94
2022-10-14T05:05:11.479Z,96.11
2022-10-14T05:07:55.487Z,95.91
2022-10-14T05:10:48.953Z,96.60
2022-10-14T05:13:41.408Z,97.29
2022-10-14T05:16:21.039Z,96.96
2022-10-14T05:18:59.278Z,97.35
2022-10-14T05:21:41.054Z,97.16
2022-10-14T05:24:23.838Z,97.07
2022-10-14T05:27:02.978Z,96.78
2022-10-14T05:29:43.219Z,97.05
2022-10-14T05:32:21.892Z,97.08
2022-10-14T05:35:03.125Z,97.09
2022-10-14T05:37:47.444Z,97.13
2022-10-14T05:40:24.791Z,96.71
2022-10-14T05:43:06.765Z,96.85
2022-10-14T05:45:47.448Z,96.05
2022-10-14T05:48:25.993Z,95.79
2022-10-14T05:51:05.185Z,94.89
2022-10-14T05:53:46.450Z,93.11
2022-10-14T05:56:27.569Z,92.13
2022-10-14T05:59:05.983Z,91.06
2022-10-14T06:01:47.068Z,91.25
2022-10-14T06:04:25.935Z,91.18
2022-10-14T06:07:03.728Z,91.86
2022-10-14T06:09:41.877Z,92.26
2022-10-14T06:12:20.426Z,91.55
2022-10-14T06:14:58.803Z,88.28
2022-10-14T06:17:38.127Z,84.58
2022-10-14T06:20:16.401Z,82.53
2022-10-14T06:22:54.533Z,82.94
2022-10-14T06:25:36.290Z,83.98
2022-10-14T06:28:14.330Z,83.77
2022-10-14T06:30:55.127Z,85.07
2022-10-14T06:33:35.185Z,85.78
2022-10-14T06:36:15.590Z,85.46
2022-10-14T06:38:54.475Z,85.38
2022-10-14T06:41:33.198Z,85.53
2022-10-14T06:44:15.601Z,84.79
2022-10-14T06:46:54.370Z,85.09
2022-10-14T06:49:32.543Z,84.51
2022-10-14T06:52:11.961Z,83.84
2022-10-14T06:54:50.600Z,83.88
2022-10-14T06:57:28.865Z,84.42
2022-10-14T07:00:07.951Z,83.66
2022-10-14T07:02:46.890Z,83.28
2022-10-14T07:05:25.495Z,83.35
2022-10-14T07:08:03.248Z,82.94
2022-10-14T07:10:41.486Z,82.40
2022-10-14T07:13:19.760Z,82.27
2022-10-14T07:15:57.923Z,81.29
2022-10-14T07:18:36.074Z,80.04
2022-10-14T07:21:14.661Z,77.27
2022-10-14T07:23:51.209Z,78.58
2022-10-14T07:26:31.563Z,78.13
2022-10-14T07:29:10.447Z,77.78
2022-10-14T07:31:48.736Z,78.59
2022-10-14T07:34:27.338Z,76.87
2022-10-14T07:37:06.603Z,74.48
2022-10-14T07:39:48.154Z,68.54
2022-10-14T07:42:26.335Z,62.92
2022-10-14T07:45:06.663Z,59.99
2022-10-14T07:47:48.271Z,56.12
2022-10-14T07:50:25.800Z,54.70
2022-10-14T07:53:04.008Z,53.00
2022-10-14T07:55:52.288Z,52.15
2022-10-14T07:58:31.811Z,51.67
2022-10-14T08:01:09.769Z,49.25
2022-10-14T08:03:48.527Z,48.77
2022-10-14T08:06:26.172Z,48.45
2022-10-14T08:09:05.803Z,48.28
2022-10-14T08:11:44.528Z,47.36
2022-10-14T08:14:25.326Z,47.97
2022-10-14T08:17:03.883Z,48.05
2022-10-14T08:19:42.688Z,49.02
2022-10-14T08:22:20.728Z,48.64
2022-10-14T08:24:58.485Z,46.38
2022-10-14T08:27:36.666Z,47.30
2022-10-14T08:30:14.864Z,46.62
2022-10-14T08:32:53.409Z,46.95
2022-10-14T08:35:31.559Z,47.48
2022-10-14T08:38:09.663Z,47.38
2022-10-14T08:41:07.492Z,48.84
2022-10-14T08:43:50.198Z,50.23
2022-10-14T08:46:38.175Z,48.40
2022-10-14T08:49:40.602Z,48.77
2022-10-14T08:52:25.485Z,48.29
2022-10-14T08:55:33.879Z,46.76
2022-10-14T08:58:23.669Z,48.89
2022-10-14T09:01:15.292Z,48.73
2022-10-14T09:04:01.089Z,48.86
2022-10-14T09:06:43.265Z,48.54
2022-10-14T09:09:26.453Z,48.01
2022-10-14T09:12:09.730Z,48.10
2022-10-14T09:15:13.255Z,47.06
2022-10-14T09:18:16.547Z,47.44
2022-10-14T09:20:56.367Z,46.62
2022-10-14T09:23:34.616Z,46.41
2022-10-14T09:26:19.386Z,46.40
2022-10-14T09:28:57.430Z,45.53
2022-10-14T09:31:35.451Z,46.00
2022-10-14T09:34:25.887Z,46.02
2022-10-14T09:37:31.237Z,46.55
2022-10-14T09:40:44.112Z,49.03
2022-10-14T09:43:24.958Z,48.65
2022-10-14T09:46:08.042Z,48.44
2022-10-14T09:48:48.466Z,48.42
2022-10-14T09:51:31.218Z,48.45
2022-10-14T09:54:22.016Z,48.16
2022-10-14T09:57:07.262Z,50.30
2022-10-14T10:00:06.489Z,51.17
2022-10-14T10:02:46.962Z,52.15
2022-10-14T10:05:34.851Z,53.76
2022-10-14T10:08:18.669Z,53.06
2022-10-14T10:11:05.516Z,54.87
2022-10-14T10:13:45.404Z,54.98
2022-10-14T10:16:27.544Z,56.26
2022-10-14T10:19:44.182Z,57.17
2022-10-14T10:22:26.297Z,57.91
2022-10-14T10:25:08.210Z,57.44
2022-10-14T10:27:48.832Z,55.94
2022-10-14T10:30:38.933Z,55.51
2022-10-14T10:33:18.460Z,55.82
2022-10-14T10:36:21.203Z,56.90
2022-10-14T10:39:21.846Z,56.23
2022-10-14T10:42:23.858Z,56.70
2022-10-14T10:45:26.854Z,57.12
2022-10-14T10:48:28.079Z,57.66
2022-10-14T10:51:28.287Z,57.85
2022-10-14T10:54:19.477Z,58.19
2022-10-14T10:57:04.368Z,57.32
2022-10-14T11:00:10.952Z,57.19
2022-10-14T11:03:25.315Z,58.07
2022-10-14T11:06:15.009Z,57.76
2022-10-14T11:09:22.363Z,58.25
2022-10-14T11:12:35.261Z,57.87
2022-10-14T11:15:25.210Z,58.63
2022-10-14T11:18:14.450Z,58.29
2022-10-14T11:20:55.659Z,58.26
2022-10-14T11:23:49.064Z,58.42
2022-10-14T11:27:04.248Z,58.76
2022-10-14T11:29:55.059Z,57.32
2022-10-14T11:32:51.580Z,57.02
2022-10-14T11:35:59.055Z,57.57
2022-10-14T11:39:17.425Z,57.12
2022-10-14T11:42:24.753Z,58.29
2022-10-14T11:45:07.978Z,57.51
2022-10-14T11:47:50.694Z,57.55
2022-10-14T11:50:38.087Z,57.35
2022-10-14T11:53:39.278Z,57.18
2022-10-14T11:56:40.203Z,57.54
2022-10-14T11:59:37.723Z,57.88
2022-10-14T12:02:33.677Z,56.62
2022-10-14T12:05:41.621Z,57.96
2022-10-14T12:08:27.613Z,56.99
2022-10-14T12:11:29.890Z,56.64
2022-10-14T12:14:19.173Z,58.00
2022-10-14T12:17:00.109Z,59.40
2022-10-14T12:19:37.874Z,59.02
2022-10-14T12:22:15.754Z,59.05
2022-10-14T12:24:56.211Z,59.40
2022-10-14T12:30:34.007Z,58.25
2022-10-14T12:33:18.831Z,57.74
2022-10-14T12:36:01.126Z,57.20
2022-10-14T12:38:40.114Z,59.03
2022-10-14T12:41:39.544Z,58.59
2022-10-14T12:44:20.915Z,58.22
2022-10-14T12:47:00.397Z,58.66
2022-10-14T12:49:46.554Z,57.12
2022-10-14T12:52:31.849Z,57.34
2022-10-14T12:55:18.548Z,58.36
2022-10-14T12:58:05.210Z,58.98
2022-10-14T13:00:43.471Z,58.46
2022-10-14T13:03:27.447Z,59.61
2022-10-14T13:06:33.453Z,59.52
2022-10-14T13:09:11.485Z,58.97
2022-10-14T13:11:52.766Z,59.28
2022-10-14T13:14:35.406Z,59.38
2022-10-14T13:17:41.988Z,58.60
2022-10-14T13:20:34.587Z,58.94
2022-10-14T13:23:27.497Z,59.39
2022-10-14T13:26:21.974Z,60.14
2022-10-14T13:29:30.259Z,59.51
2022-10-14T13:32:30.821Z,60.92
2022-10-14T13:35:31.455Z,61.00
2022-10-14T13:38:17.757Z,60.88
2022-10-14T13:41:02.434Z,61.00
2022-10-14T13:43:43.212Z,60.64
2022-10-14T13:46:26.982Z,59.57
2022-10-14T13:49:08.395Z,60.72
2022-10-14T13:51:58.737Z,59.52
2022-10-14T13:54:36.527Z,59.79
2022-10-14T13:57:47.773Z,58.19
2022-10-14T14:00:50.832Z,57.68
2022-10-14T14:03:31.014Z,57.17
2022-10-14T14:06:14.486Z,57.77
2022-10-14T14:09:00.073Z,58.41
2022-10-14T14:11:46.752Z,58.44
2022-10-14T14:14:38.198Z,58.29
2022-10-14T14:17:19.824Z,59.80
2022-10-14T14:20:01.776Z,58.95
2022-10-14T14:22:46.293Z,57.78
2022-10-14T14:25:36.132Z,58.41
2022-10-14T14:28:22.740Z,59.21
2022-10-14T14:31:01.397Z,59.75
2022-10-14T14:33:39.429Z,59.44
2022-10-14T14:36:27.471Z,58.95
2022-10-14T14:39:05.385Z,59.08
2022-10-14T14:41:50.603Z,59.85
2022-10-14T14:44:33.254Z,60.28
2022-10-14T14:47:11.898Z,60.84
2022-10-14T14:49:57.477Z,61.65
2022-10-14T14:55:48.094Z,60.59
2022-10-14T14:58:30.967Z,61.39
2022-10-14T15:01:19.337Z,62.40
2022-10-14T15:04:16.582Z,61.27
2022-10-14T15:07:11.262Z,62.18
2022-10-14T15:09:55.326Z,62.75
2022-10-14T15:12:41.908Z,62.60
2022-10-14T15:15:31.018Z,63.00
2022-10-14T15:18:15.962Z,63.92
2022-10-14T15:21:19.444Z,63.61
2022-10-14T15:24:00.527Z,64.03
2022-10-14T15:26:38.550Z,65.55
2022-10-14T15:29:16.448Z,63.91
2022-10-14T15:32:01.768Z,65.12
2022-10-14T15:34:39.287Z,63.67
2022-10-14T15:37:17.379Z,63.04
2022-10-14T15:40:05.386Z,61.96
2022-10-14T15:42:44.326Z,62.35
2022-10-14T15:45:22.937Z,61.65
2022-10-14T15:48:04.526Z,62.16
2022-10-14T15:50:45.261Z,61.78
2022-10-14T15:53:22.554Z,62.80
2022-10-14T15:56:00.823Z,63.15
2022-10-14T15:58:39.142Z,62.96
2022-10-14T16:01:20.542Z,62.72
2022-10-14T16:03:59.373Z,62.64
2022-10-14T16:06:36.760Z,62.38
2022-10-14T16:09:14.982Z,62.42
2022-10-14T16:11:57.303Z,62.70
2022-10-14T16:14:36.122Z,62.35
2022-10-14T16:17:14.483Z,62.40
2022-10-14T16:19:52.599Z,62.58
2022-10-14T16:22:30.892Z,63.91
2022-10-14T16:25:20.189Z,63.39
2022-10-14T16:27:59.144Z,63.46
2022-10-14T16:30:40.660Z,63.77
2022-10-14T16:33:24.216Z,63.60
2022-10-14T16:36:04.195Z,63.83
2022-10-14T16:38:42.986Z,63.13
2022-10-14T16:41:20.607Z,63.13
2022-10-14T16:43:58.949Z,63.16
2022-10-14T16:46:58.583Z,63.76
2022-10-14T16:49:36.108Z,63.52
2022-10-14T16:52:15.587Z,63.74
2022-10-14T16:54:54.206Z,63.90
2022-10-14T16:57:32.786Z,65.00
2022-10-14T17:00:11.231Z,65.00
2022-10-14T17:02:48.813Z,65.31
2022-10-14T17:05:27.122Z,65.18
2022-10-14T17:08:05.297Z,65.58
2022-10-14T17:10:43.295Z,65.60
2022-10-14T17:13:21.509Z,66.41
2022-10-14T17:16:04.468Z,67.03
2022-10-14T17:18:43.122Z,67.49
2022-10-14T17:21:29.769Z,68.01
2022-10-14T17:24:07.489Z,68.54
2022-10-14T17:26:45.696Z,69.32
2022-10-14T17:29:24.151Z,70.31
2022-10-14T17:32:03.678Z,70.74
2022-10-14T17:34:40.221Z,71.00
2022-10-14T17:37:18.162Z,70.76
2022-10-14T17:39:56.366Z,70.55
2022-10-14T17:42:34.761Z,71.02
2022-10-14T17:45:12.724Z,70.39
2022-10-14T17:47:51.133Z,69.66
2022-10-14T17:50:30.660Z,69.46
2022-10-14T17:53:12.683Z,70.02
2022-10-14T17:55:52.795Z,70.58
2022-10-14T17:58:34.410Z,70.95
2022-10-14T18:01:15.869Z,71.40
2022-10-14T18:03:56.810Z,72.10
2022-10-14T18:06:35.275Z,72.29
2022-10-14T18:09:12.863Z,73.55
2022-10-14T18:14:49.816Z,74.25
2022-10-14T18:17:28.072Z,74.40
2022-10-14T18:20:10.277Z,73.96
2022-10-14T18:22:49.390Z,73.86
2022-10-14T18:25:27.522Z,74.47
2022-10-14T18:28:08.496Z,74.85
2022-10-14T18:30:47.056Z,75.33
2022-10-14T18:33:25.242Z,75.24
2022-10-14T18:36:06.030Z,75.77
2022-10-14T18:38:44.826Z,75.87
2022-10-14T18:41:25.078Z,76.77
2022-10-14T18:44:03.398Z,77.28
2022-10-14T18:46:41.198Z,77.79
2022-10-14T18:49:19.349Z,78.28
2022-10-14T18:51:57.579Z,78.78
2022-10-14T18:54:35.934Z,78.82
2022-10-14T18:57:14.995Z,79.41
2022-10-14T18:59:56.723Z,78.81
2022-10-14T19:02:35.129Z,79.61
2022-10-14T19:05:15.366Z,80.57
2022-10-14T19:07:54.767Z,81.10
2022-10-14T19:10:32.928Z,79.87
2022-10-14T19:13:12.231Z,79.48
2022-10-14T19:16:02.641Z,79.08
2022-10-14T19:18:43.053Z,79.45
2022-10-14T19:21:23.044Z,79.52
2022-10-14T19:24:02.916Z,80.16
2022-10-14T19:26:45.914Z,79.65
2022-10-14T19:29:24.793Z,80.80
2022-10-14T19:32:02.550Z,81.03
2022-10-14T19:34:44.850Z,81.55
2022-10-14T19:37:25.611Z,82.31
2022-10-14T19:40:03.869Z,83.36
2022-10-14T19:42:41.888Z,83.96
2022-10-14T19:45:18.771Z,84.63
2022-10-14T19:47:56.651Z,84.53
2022-10-14T19:50:34.815Z,84.82
2022-10-14T19:53:13.212Z,84.98
2022-10-14T19:55:51.335Z,84.07
2022-10-14T19:58:29.451Z,84.02
2022-10-14T20:01:16.194Z,84.10
2022-10-14T20:03:54.341Z,84.39
2022-10-14T20:06:35.447Z,83.76
2022-10-14T20:09:16.359Z,83.83
2022-10-14T20:11:54.895Z,83.80
2022-10-14T20:14:33.086Z,83.83
2022-10-14T20:17:11.285Z,84.03
2022-10-14T20:19:49.454Z,84.12
2022-10-14T20:22:27.702Z,84.32
2022-10-14T20:25:17.728Z,84.64
2022-10-14T20:27:56.245Z,84.23
2022-10-14T20:30:34.138Z,84.68
2022-10-14T20:33:12.649Z,84.87
2022-10-14T20:36:05.411Z,83.62
2022-10-14T20:38:43.405Z,83.84
2022-10-14T20:41:24.555Z,84.78
2022-10-14T20:44:02.727Z,84.79
2022-10-14T20:46:44.130Z,84.61
2022-10-14T20:49:22.305Z,84.70
2022-10-14T20:52:00.519Z,84.99
2022-10-14T20:54:38.801Z,85.68
2022-10-14T20:57:18.460Z,85.61
2022-10-14T20:59:57.634Z,85.72
2022-10-14T21:02:34.973Z,85.56
2022-10-14T21:05:13.193Z,85.61
2022-10-14T21:07:52.574Z,86.00
2022-10-14T21:10:31.215Z,86.73
2022-10-14T21:13:09.405Z,86.82
2022-10-14T21:15:47.612Z,86.53
2022-10-14T21:18:29.290Z,86.81
2022-10-14T21:21:07.546Z,87.43
2022-10-14T21:23:49.395Z,88.35
2022-10-14T21:26:29.969Z,88.62
2022-10-14T21:29:08.217Z,88.30
2022-10-14T21:31:47.384Z,87.24
2022-10-14T21:34:26.206Z,88.20
2022-10-14T21:37:04.510Z,87.42
2022-10-14T21:39:41.395Z,87.38
2022-10-14T21:42:18.213Z,86.59
2022-10-14T21:44:54.608Z,86.82
2022-10-14T21:47:31.429Z,87.05
2022-10-14T21:50:08.371Z,87.01
2022-10-14T21:52:44.366Z,86.86
2022-10-14T21:55:21.059Z,87.52
2022-10-14T21:57:57.726Z,87.60
2022-10-14T22:00:34.529Z,87.61
2022-10-14T22:03:11.564Z,87.05
2022-10-14T22:05:57.372Z,87.12
2022-10-14T22:08:37.190Z,86.65
2022-10-14T22:11:27.071Z,86.40
2022-10-14T22:14:07.586Z,86.44
2022-10-14T22:16:46.117Z,86.37
2022-10-14T22:19:22.721Z,86.01
2022-10-14T22:22:01.307Z,86.22
2022-10-14T22:24:38.993Z,85.54
2022-10-14T22:27:15.519Z,85.44
2022-10-14T22:29:52.132Z,83.81
2022-10-14T22:32:28.707Z,84.64
2022-10-14T22:35:05.882Z,85.08
2022-10-14T22:37:42.016Z,84.51
2022-10-14T22:40:18.868Z,84.85
2022-10-14T22:42:55.302Z,85.20
2022-10-14T22:45:32.278Z,85.10
2022-10-14T22:48:08.356Z,84.88
2022-10-14T22:50:44.971Z,84.40
2022-10-14T22:53:21.773Z,84.23
2022-10-14T22:55:58.608Z,83.77
2022-10-14T22:58:34.871Z,84.84
2022-10-14T23:01:16.676Z,84.76
2022-10-14T23:03:52.734Z,84.63
2022-10-14T23:06:30.476Z,84.34
2022-10-14T23:09:07.611Z,83.42
2022-10-14T23:11:47.426Z,82.91
2022-10-14T23:14:24.067Z,84.14
2022-10-14T23:17:00.660Z,83.89
2022-10-14T23:19:40.162Z,84.45
2022-10-14T23:22:17.033Z,85.22
2022-10-14T23:24:53.483Z,85.31
2022-10-14T23:27:32.860Z,85.29
2022-10-14T23:30:14.822Z,85.58
2022-10-14T23:32:54.490Z,84.93
2022-10-14T23:35:31.559Z,84.54
2022-10-14T23:38:12.314Z,85.03
2022-10-14T23:40:39.980Z,85.40
2022-10-14T23:43:07.351Z,86.04
2022-10-14T23:45:34.700Z,85.80
2022-10-14T23:48:02.031Z,85.29
2022-10-14T23:50:29.311Z,85.95
2022-10-14T23:52:56.669Z,86.22
2022-10-14T23:55:24.079Z,85.77
2022-10-14T23:57:51.422Z,84.64
